Time;durP1;ratioP1;P1;durP2;ratioP2;P2;SDS_P1;SDS_P2;PMS_P1;PMS_P2;Temp;Humidity;BMP_temperature;BMP_pressure;BME280_temperature;BME280_humidity;BME280_pressure;Samples;Min_cycle;Max_cycle;Signal;HPM_P1;HPM_P2
2021/04/06 00:00:21;;;;;;;15.77;3.10;;;3.70;99.90;;;;;;5034251;28;20470;-70
2021/04/06 00:02:51;;;;;;;14.32;2.42;;;3.60;99.90;;;;;;5035940;28;20147;-70
2021/04/06 00:05:20;;;;;;;11.82;1.63;;;3.70;99.90;;;;;;5035862;28;20072;-70
2021/04/06 00:07:49;;;;;;;11.95;2.20;;;3.60;99.90;;;;;;5035022;28;20028;-70
2021/04/06 00:10:34;;;;;;;16.40;2.75;;;3.40;99.90;;;;;;5035360;28;20037;-71
2021/04/06 00:13:00;;;;;;;11.80;1.92;;;3.40;99.90;;;;;;5033934;28;20017;-70
2021/04/06 00:15:28;;;;;;;20.17;2.28;;;3.30;99.90;;;;;;5035346;28;20018;-70
2021/04/06 00:17:58;;;;;;;16.38;1.45;;;3.30;99.90;;;;;;5032755;28;20049;-70
2021/04/06 00:20:28;;;;;;;11.45;1.40;;;3.30;99.90;;;;;;5025953;28;20029;-70
2021/04/06 00:22:55;;;;;;;23.35;2.53;;;3.30;99.90;;;;;;5034460;28;20109;-71
2021/04/06 00:25:25;;;;;;;19.10;1.85;;;3.30;99.90;;;;;;5035254;28;20486;-70
2021/04/06 00:27:52;;;;;;;12.93;2.28;;;3.40;99.90;;;;;;5034127;28;20037;-70
2021/04/06 00:30:32;;;;;;;11.20;1.63;;;3.30;99.90;;;;;;5034904;28;20080;-70
2021/04/06 00:33:09;;;;;;;12.02;2.78;;;3.30;99.90;;;;;;5033958;28;20112;-71
2021/04/06 00:35:37;;;;;;;8.48;1.95;;;3.40;99.90;;;;;;5033521;28;20186;-70
2021/04/06 00:38:08;;;;;;;26.70;2.90;;;3.40;99.90;;;;;;5045411;28;20076;-70
2021/04/06 00:40:41;;;;;;;22.38;2.53;;;3.40;99.90;;;;;;5050259;28;20029;-70
2021/04/06 00:43:07;;;;;;;22.20;3.10;;;3.50;99.90;;;;;;5034478;28;20029;-70
2021/04/06 00:45:45;;;;;;;23.05;2.70;;;3.60;99.90;;;;;;5035109;28;20033;-70
2021/04/06 00:48:13;;;;;;;15.75;2.78;;;3.70;99.90;;;;;;5035432;28;20030;-71
2021/04/06 00:50:44;;;;;;;9.98;2.35;;;3.70;99.90;;;;;;5036418;28;20033;-71
2021/04/06 00:53:10;;;;;;;26.77;3.15;;;3.70;99.90;;;;;;5036803;28;20039;-71
2021/04/06 00:55:40;;;;;;;16.23;2.60;;;3.70;99.90;;;;;;5034438;28;20494;-69
2021/04/06 00:58:16;;;;;;;24.50;3.45;;;3.70;99.90;;;;;;5035133;28;20030;-71
2021/04/06 01:00:42;;;;;;;18.02;3.47;;;3.60;99.90;;;;;;5034698;28;20064;-72
2021/04/06 01:03:17;;;;;;;18.25;2.53;;;3.60;99.90;;;;;;5032940;28;20021;-70
2021/04/06 01:06:01;;;;;;;10.90;1.88;;;3.40;99.90;;;;;;5013641;28;20121;-70
2021/04/06 01:08:32;;;;;;;11.10;1.40;;;3.40;99.90;;;;;;5018443;28;20037;-71
2021/04/06 01:11:00;;;;;;;10.48;1.20;;;3.30;99.90;;;;;;5034179;28;20042;-72
2021/04/06 01:13:26;;;;;;;26.17;2.15;;;3.40;99.90;;;;;;5033176;28;20032;-70
2021/04/06 01:15:53;;;;;;;23.33;3.00;;;3.30;99.90;;;;;;5033098;28;20034;-70
2021/04/06 01:18:20;;;;;;;10.45;2.63;;;3.30;99.90;;;;;;5033107;28;20022;-70
2021/04/06 01:20:46;;;;;;;15.57;2.60;;;3.30;99.90;;;;;;5034325;28;20060;-71
2021/04/06 01:23:15;;;;;;;20.20;2.35;;;3.30;99.90;;;;;;5032663;28;20406;-71
2021/04/06 01:25:56;;;;;;;17.50;2.72;;;3.30;99.90;;;;;;5032840;28;20025;-70
2021/04/06 01:28:30;;;;;;;19.08;2.88;;;3.30;99.90;;;;;;5032543;28;20068;-70
2021/04/06 01:30:57;;;;;;;16.05;2.22;;;3.30;99.90;;;;;;5031526;28;20025;-69
2021/04/06 01:33:25;;;;;;;10.52;2.75;;;3.30;99.90;;;;;;5033890;28;20028;-70
2021/04/06 01:35:52;;;;;;;;;;;3.40;99.90;;;;;;5032821;28;20465;-70
2021/04/06 01:38:20;;;;;;;16.63;1.75;;;3.40;99.90;;;;;;5033782;28;19917;-70
2021/04/06 01:40:46;;;;;;;16.55;1.90;;;3.40;99.90;;;;;;5032357;28;20453;-70
2021/04/06 01:43:14;;;;;;;25.60;2.60;;;3.40;99.90;;;;;;5032160;28;20034;-69
2021/04/06 01:45:44;;;;;;;12.90;2.65;;;3.40;99.90;;;;;;5032843;28;20023;-70
2021/04/06 01:48:13;;;;;;;12.75;1.60;;;3.40;99.90;;;;;;5032577;28;20017;-69
2021/04/06 01:50:38;;;;;;;;;;;3.30;99.90;;;;;;5034179;28;20048;-70
2021/04/06 01:53:05;;;;;;;11.80;1.20;;;3.30;99.90;;;;;;5033604;28;19905;-69
2021/04/06 01:55:33;;;;;;;14.55;2.40;;;3.30;99.90;;;;;;5033781;28;20075;-70
2021/04/06 01:58:00;;;;;;;10.77;1.50;;;3.30;99.90;;;;;;5033609;28;20018;-70
2021/04/06 02:02:52;;;;;;;10.65;1.50;;;3.20;99.90;;;;;;5035205;28;20034;-71
2021/04/06 02:05:18;;;;;;;10.70;1.50;;;3.20;99.90;;;;;;5033042;28;20389;-70
2021/04/06 02:07:45;;;;;;;7.07;1.48;;;3.20;99.90;;;;;;5033210;28;20068;-72
2021/04/06 02:10:11;;;;;;;6.40;1.20;;;3.20;99.90;;;;;;5031721;28;20143;-70
2021/04/06 02:12:44;;;;;;;10.13;1.52;;;3.20;99.90;;;;;;5032020;28;20021;-70
2021/04/06 02:15:12;;;;;;;5.50;1.48;;;3.30;99.90;;;;;;5033477;28;20360;-70
2021/04/06 02:17:48;;;;;;;13.80;1.67;;;3.30;99.90;;;;;;5032005;28;20061;-71
2021/04/06 02:20:26;;;;;;;10.60;1.50;;;3.30;99.90;;;;;;5033376;28;20036;-70
2021/04/06 02:22:57;;;;;;;9.50;1.40;;;3.20;99.90;;;;;;5033109;28;20029;-69
2021/04/06 02:25:22;;;;;;;7.25;1.27;;;3.10;99.90;;;;;;5033020;28;20470;-70
2021/04/06 02:27:48;;;;;;;9.18;1.95;;;3.00;99.90;;;;;;5032827;28;20036;-71
2021/04/06 02:30:14;;;;;;;4.97;0.85;;;2.90;99.90;;;;;;5033147;28;20429;-71
2021/04/06 02:32:40;;;;;;;16.38;2.30;;;2.90;99.90;;;;;;5032853;28;20030;-70
2021/04/06 02:35:11;;;;;;;14.10;1.50;;;2.90;99.90;;;;;;5033141;28;20068;-70
2021/04/06 02:37:42;;;;;;;13.13;1.88;;;2.90;99.90;;;;;;5032388;28;20032;-70
2021/04/06 02:40:10;;;;;;;15.10;1.75;;;2.90;99.90;;;;;;5032995;28;20017;-70
2021/04/06 02:42:57;;;;;;;9.40;1.58;;;2.90;99.90;;;;;;5032693;28;20025;-70
2021/04/06 02:45:27;;;;;;;9.75;2.10;;;3.00;99.90;;;;;;5031210;28;20037;-70
2021/04/06 02:48:16;;;;;;;15.10;1.85;;;2.90;99.90;;;;;;5032872;28;20382;-70
2021/04/06 02:50:43;;;;;;;6.70;2.08;;;2.80;99.90;;;;;;5031718;28;20022;-70
2021/04/06 02:53:15;;;;;;;8.13;1.63;;;2.70;99.90;;;;;;5031460;28;20437;-71
2021/04/06 02:55:40;;;;;;;5.47;1.58;;;2.50;99.90;;;;;;5031360;28;20466;-70
2021/04/06 02:58:14;;;;;;;9.13;1.40;;;2.40;99.90;;;;;;5031384;28;20030;-70
2021/04/06 03:00:40;;;;;;;11.63;1.58;;;2.50;99.90;;;;;;5031983;28;20029;-70
2021/04/06 03:03:23;;;;;;;15.13;1.45;;;2.50;99.90;;;;;;5032730;28;20026;-70
2021/04/06 03:06:05;;;;;;;19.85;2.58;;;2.40;99.90;;;;;;5032725;28;20064;-70
2021/04/06 03:08:32;;;;;;;14.57;1.25;;;2.40;99.90;;;;;;5032869;28;20147;-70
2021/04/06 03:10:58;;;;;;;16.20;1.73;;;2.40;99.90;;;;;;5047853;28;20049;-72
2021/04/06 03:13:25;;;;;;;20.27;2.72;;;2.40;99.90;;;;;;5013135;28;20478;-70
2021/04/06 03:15:51;;;;;;;14.02;1.83;;;2.40;99.90;;;;;;5013119;28;20028;-71
2021/04/06 03:18:20;;;;;;;15.02;1.95;;;2.40;99.90;;;;;;5030604;28;20018;-70
2021/04/06 03:20:46;;;;;;;11.63;1.63;;;2.40;99.90;;;;;;5032393;28;20029;-70
2021/04/06 03:23:12;;;;;;;8.95;1.70;;;2.40;99.90;;;;;;5032438;28;20032;-70
2021/04/06 03:25:38;;;;;;;13.80;2.20;;;2.40;99.90;;;;;;5031259;28;20100;-70
2021/04/06 03:28:13;;;;;;;14.75;2.13;;;2.30;99.90;;;;;;5031500;28;20033;-70
2021/04/06 03:30:39;;;;;;;14.23;1.13;;;2.40;99.90;;;;;;5032332;28;20033;-70
2021/04/06 03:33:10;;;;;;;5.00;1.13;;;2.40;99.90;;;;;;5032331;28;20025;-70
2021/04/06 03:35:38;;;;;;;8.15;1.23;;;2.40;99.90;;;;;;5032626;28;20022;-71
2021/04/06 03:38:07;;;;;;;2.08;0.60;;;2.50;99.90;;;;;;5032367;28;20435;-70
2021/04/06 03:40:37;;;;;;;8.27;0.95;;;2.50;99.90;;;;;;5032692;28;20033;-70
2021/04/06 03:43:13;;;;;;;3.33;0.85;;;2.60;99.90;;;;;;5032097;28;20076;-71
2021/04/06 03:46:02;;;;;;;7.10;1.20;;;2.60;99.90;;;;;;5031329;28;20033;-70
2021/04/06 03:48:33;;;;;;;7.53;1.52;;;2.60;99.90;;;;;;5032522;28;20504;-70
2021/04/06 03:50:59;;;;;;;10.95;1.40;;;2.70;99.90;;;;;;5032740;28;20017;-71
2021/04/06 03:53:36;;;;;;;10.48;1.50;;;2.70;99.90;;;;;;5033880;28;20018;-69
2021/04/06 03:56:06;;;;;;;15.00;1.30;;;2.60;99.90;;;;;;5034516;28;20060;-71
2021/04/06 03:58:39;;;;;;;10.27;1.50;;;2.60;99.90;;;;;;5031511;28;20160;-71
2021/04/06 04:01:07;;;;;;;10.48;2.10;;;2.60;99.90;;;;;;5022797;28;20029;-71
2021/04/06 04:03:32;;;;;;;10.35;1.25;;;2.50;99.90;;;;;;5034391;28;20038;-71
2021/04/06 04:05:58;;;;;;;11.45;1.20;;;2.50;99.90;;;;;;5035917;28;20388;-70
2021/04/06 04:08:24;;;;;;;6.43;1.10;;;2.60;99.90;;;;;;5034371;28;20021;-70
2021/04/06 04:10:49;;;;;;;7.47;1.48;;;2.50;99.90;;;;;;5034359;28;20041;-70
2021/04/06 04:13:15;;;;;;;5.57;0.68;;;2.50;99.90;;;;;;5034158;28;20055;-70
2021/04/06 04:15:40;;;;;;;10.32;1.77;;;2.50;99.90;;;;;;5035708;28;20113;-70
2021/04/06 04:18:06;;;;;;;10.52;1.42;;;2.50;99.90;;;;;;5035920;28;20036;-70
2021/04/06 04:20:32;;;;;;;17.67;1.92;;;2.40;99.90;;;;;;5036624;28;20413;-70
2021/04/06 04:22:57;;;;;;;4.55;1.52;;;2.50;99.90;;;;;;5034683;28;20072;-70
2021/04/06 04:25:23;;;;;;;6.22;1.90;;;2.50;99.90;;;;;;5035158;28;20025;-70
2021/04/06 04:27:48;;;;;;;10.75;1.35;;;2.50;99.90;;;;;;5034820;28;20025;-69
2021/04/06 04:30:15;;;;;;;8.13;1.13;;;2.50;99.90;;;;;;5034872;28;20025;-70
2021/04/06 04:32:41;;;;;;;1.17;0.50;;;2.50;99.90;;;;;;5033952;28;20021;-70
2021/04/06 04:35:08;;;;;;;4.38;0.90;;;2.40;99.90;;;;;;5034420;28;20028;-70
2021/04/06 04:37:34;;;;;;;4.85;0.90;;;2.40;99.90;;;;;;5035197;28;20021;-70
2021/04/06 04:39:59;;;;;;;6.72;0.93;;;2.20;99.90;;;;;;5033261;28;20561;-69
2021/04/06 04:42:25;;;;;;;5.25;1.00;;;2.10;99.90;;;;;;5033960;28;20119;-68
2021/04/06 04:44:50;;;;;;;8.32;1.17;;;2.10;99.90;;;;;;5033945;28;20045;-71
2021/04/06 04:47:16;;;;;;;8.93;1.08;;;2.10;99.90;;;;;;5033906;28;20489;-69
2021/04/06 04:49:41;;;;;;;7.78;1.77;;;2.10;99.90;;;;;;5035120;28;20025;-70
2021/04/06 04:52:07;;;;;;;7.82;2.42;;;2.10;99.90;;;;;;5034689;28;20071;-69
2021/04/06 04:54:33;;;;;;;10.35;1.65;;;2.10;99.90;;;;;;5034939;28;20080;-69
2021/04/06 04:56:59;;;;;;;13.20;1.48;;;2.20;99.90;;;;;;5034886;28;20040;-69
2021/04/06 04:59:25;;;;;;;9.13;2.42;;;2.20;99.90;;;;;;5032666;28;20443;-69
2021/04/06 05:01:50;;;;;;;11.30;0.98;;;2.20;99.90;;;;;;5033853;28;20017;-69
2021/04/06 05:04:16;;;;;;;8.90;1.52;;;2.20;99.90;;;;;;5032883;28;20558;-69
2021/04/06 05:06:42;;;;;;;7.95;0.98;;;2.20;99.90;;;;;;5029369;28;20033;-69
2021/04/06 05:09:08;;;;;;;6.55;0.85;;;2.20;99.90;;;;;;5034631;28;20370;-69
2021/04/06 05:11:35;;;;;;;6.85;0.77;;;2.20;99.90;;;;;;5033792;28;20041;-69
2021/04/06 05:14:02;;;;;;;6.35;0.80;;;2.10;99.90;;;;;;5033327;28;20422;-69
2021/04/06 05:16:27;;;;;;;1.92;0.65;;;2.20;99.90;;;;;;5033220;28;20018;-69
2021/04/06 05:18:53;;;;;;;4.55;0.82;;;2.20;99.90;;;;;;5034541;28;20028;-70
2021/04/06 05:21:18;;;;;;;2.60;0.77;;;2.20;99.90;;;;;;5032049;28;20083;-69
2021/04/06 05:23:44;;;;;;;3.33;0.50;;;2.20;99.90;;;;;;5033737;28;20394;-70
2021/04/06 05:26:10;;;;;;;8.65;0.82;;;2.10;99.90;;;;;;5032763;28;20103;-70
2021/04/06 05:28:36;;;;;;;3.35;0.98;;;2.10;99.90;;;;;;5034693;28;20029;-69
2021/04/06 05:31:01;;;;;;;4.95;1.08;;;2.10;99.90;;;;;;5035284;28;20040;-71
2021/04/06 05:33:27;;;;;;;3.53;0.40;;;2.10;99.90;;;;;;5032824;28;20018;-70
2021/04/06 05:35:53;;;;;;;6.70;0.98;;;2.20;99.90;;;;;;5033921;28;20025;-69
2021/04/06 05:38:19;;;;;;;2.38;0.63;;;2.10;99.90;;;;;;5034010;28;20029;-70
2021/04/06 05:40:44;;;;;;;9.23;0.80;;;2.10;99.90;;;;;;5033427;28;20044;-72
2021/04/06 05:43:13;;;;;;;12.13;0.98;;;2.00;99.90;;;;;;5032519;28;20079;-70
2021/04/06 05:45:42;;;;;;;8.30;1.67;;;2.00;99.90;;;;;;5033472;28;20443;-70
2021/04/06 05:48:14;;;;;;;6.28;1.20;;;2.00;99.90;;;;;;5033353;28;20017;-70
2021/04/06 05:50:44;;;;;;;1.75;0.75;;;2.00;99.90;;;;;;5033722;28;20038;-70
2021/04/06 05:53:10;;;;;;;11.25;1.20;;;1.90;99.90;;;;;;5030550;28;20033;-71
2021/04/06 05:55:36;;;;;;;6.18;1.52;;;1.90;99.90;;;;;;5031755;28;20028;-71
2021/04/06 05:58:02;;;;;;;8.20;2.00;;;2.00;99.90;;;;;;5030627;28;20041;-71
2021/04/06 06:00:27;;;;;;;9.40;1.30;;;2.10;99.90;;;;;;5032968;28;20036;-70
2021/04/06 06:02:53;;;;;;;4.70;1.50;;;2.10;99.90;;;;;;5032156;28;20401;-70
2021/04/06 06:05:19;;;;;;;3.85;0.98;;;2.20;99.90;;;;;;5031757;28;20113;-71
2021/04/06 06:07:45;;;;;;;7.07;1.52;;;2.30;99.90;;;;;;5032769;28;20108;-70
2021/04/06 06:10:40;;;;;;;6.72;1.20;;;2.40;99.90;;;;;;5029448;28;20022;-70
2021/04/06 06:13:21;;;;;;;6.78;1.55;;;2.60;99.90;;;;;;5020176;28;20037;-70
2021/04/06 06:16:22;;;;;;;4.03;0.85;;;2.90;99.90;;;;;;5032638;28;20037;-70
2021/04/06 06:19:10;;;;;;;10.07;1.08;;;2.90;99.90;;;;;;5032638;28;20033;-71
2021/04/06 06:21:42;;;;;;;11.27;1.38;;;2.80;99.90;;;;;;5032696;28;20034;-71
2021/04/06 06:24:09;;;;;;;8.07;1.17;;;2.70;99.90;;;;;;5032316;28;20030;-71
2021/04/06 06:26:35;;;;;;;10.05;1.25;;;2.60;99.90;;;;;;5032120;28;20048;-70
2021/04/06 06:29:17;;;;;;;7.75;1.00;;;2.50;99.90;;;;;;5033356;28;20033;-69
2021/04/06 06:31:48;;;;;;;8.32;1.95;;;2.50;99.90;;;;;;5033005;28;20025;-71
2021/04/06 06:34:29;;;;;;;16.13;3.50;;;2.70;99.90;;;;;;5016037;28;20013;-71
2021/04/06 06:37:24;;;;;;;4.47;0.80;;;2.90;99.90;;;;;;5034629;28;20361;-72
2021/04/06 06:40:03;;;;;;;4.00;1.02;;;3.20;99.90;;;;;;5032100;28;20021;-71
2021/04/06 06:42:35;;;;;;;6.70;1.42;;;3.30;99.90;;;;;;5032394;28;20034;-69
2021/04/06 06:45:03;;;;;;;5.72;1.40;;;3.40;99.90;;;;;;5032912;28;20033;-69
2021/04/06 06:47:31;;;;;;;5.85;0.88;;;3.40;99.90;;;;;;5030697;28;20048;-69
2021/04/06 06:50:08;;;;;;;10.20;1.25;;;3.50;99.90;;;;;;5031331;28;20489;-70
2021/04/06 06:52:33;;;;;;;5.03;0.80;;;3.60;99.90;;;;;;5028770;28;20036;-69
2021/04/06 06:55:16;;;;;;;1.85;0.70;;;3.30;99.90;;;;;;5016470;28;20017;-73
2021/04/06 06:57:41;;;;;;;4.05;0.63;;;2.90;99.90;;;;;;5033041;28;20049;-69
2021/04/06 07:00:20;;;;;;;7.43;0.95;;;2.60;99.90;;;;;;5031982;28;20028;-70
2021/04/06 07:02:46;;;;;;;9.23;1.30;;;2.60;99.90;;;;;;5025682;28;20021;-69
2021/04/06 07:05:19;;;;;;;6.03;1.00;;;2.50;99.90;;;;;;5031379;28;20037;-71
2021/04/06 07:07:49;;;;;;;2.80;0.57;;;2.40;99.90;;;;;;5033087;28;20030;-69
2021/04/06 07:10:15;;;;;;;5.15;0.70;;;2.40;99.90;;;;;;5032371;28;20041;-70
2021/04/06 07:12:45;;;;;;;6.03;0.98;;;2.30;99.90;;;;;;5045676;28;20037;-68
2021/04/06 07:15:13;;;;;;;5.70;1.38;;;2.30;99.90;;;;;;5032809;28;20037;-70
2021/04/06 07:17:42;;;;;;;11.10;1.13;;;2.40;99.90;;;;;;5031309;28;20028;-69
2021/04/06 07:20:11;;;;;;;3.50;0.68;;;2.50;99.90;;;;;;5032110;28;20428;-71
2021/04/06 07:22:39;;;;;;;9.80;0.88;;;2.60;99.90;;;;;;5030916;28;20056;-69
2021/04/06 07:25:05;;;;;;;6.13;0.98;;;2.90;99.90;;;;;;5031600;28;20037;-70
2021/04/06 07:27:31;;;;;;;3.40;0.60;;;3.10;99.90;;;;;;5032490;28;20041;-69
2021/04/06 07:29:59;;;;;;;9.57;0.88;;;3.30;99.90;;;;;;5035350;28;20555;-69
2021/04/06 07:32:26;;;;;;;2.80;0.77;;;3.70;99.90;;;;;;5033642;28;20136;-70
2021/04/06 07:34:52;;;;;;;7.72;1.58;;;4.00;99.90;;;;;;5033315;28;20036;-72
2021/04/06 07:37:17;;;;;;;5.70;0.85;;;4.10;99.90;;;;;;5035281;28;20026;-72
2021/04/06 07:39:43;;;;;;;10.52;1.35;;;4.30;99.90;;;;;;5035911;28;20038;-71
2021/04/06 07:42:10;;;;;;;3.38;0.68;;;4.20;99.90;;;;;;5036060;28;20037;-70
2021/04/06 07:44:37;;;;;;;7.32;0.98;;;4.00;99.90;;;;;;5034430;28;20029;-71
2021/04/06 07:47:04;;;;;;;2.28;0.60;;;3.90;99.90;;;;;;5034994;28;20390;-70
2021/04/06 07:49:30;;;;;;;3.88;0.95;;;3.80;99.90;;;;;;5036144;28;20025;-70
2021/04/06 07:51:57;;;;;;;8.48;0.60;;;3.90;99.90;;;;;;5036441;28;20060;-69
2021/04/06 07:54:30;;;;;;;1.85;0.60;;;4.10;99.90;;;;;;5034329;28;20032;-70
2021/04/06 07:57:00;;;;;;;6.25;1.48;;;4.10;99.90;;;;;;5035824;28;20076;-70
2021/04/06 07:59:26;;;;;;;6.32;0.75;;;4.30;99.90;;;;;;5034859;28;20041;-70
2021/04/06 08:01:52;;;;;;;4.95;0.85;;;4.50;99.90;;;;;;5034546;28;20430;-69
2021/04/06 08:04:26;;;;;;;5.40;0.80;;;4.60;99.90;;;;;;5035371;28;20028;-70
2021/04/06 08:06:57;;;;;;;9.43;1.13;;;4.50;99.90;;;;;;5034202;28;20126;-71
2021/04/06 08:09:28;;;;;;;6.70;1.05;;;4.70;99.90;;;;;;5035383;28;20387;-70
2021/04/06 08:12:10;;;;;;;5.82;1.13;;;4.60;99.90;;;;;;5035678;28;20038;-71
2021/04/06 08:14:45;;;;;;;6.30;1.17;;;4.80;99.90;;;;;;5034890;28;20378;-71
2021/04/06 08:17:26;;;;;;;7.55;1.00;;;4.90;99.90;;;;;;5035108;28;20078;-69
2021/04/06 08:19:56;;;;;;;4.13;0.85;;;5.00;99.90;;;;;;5034867;28;20064;-69
2021/04/06 08:22:26;;;;;;;12.52;1.88;;;5.00;99.90;;;;;;5034323;28;20045;-70
2021/04/06 08:25:27;;;;;;;7.57;1.50;;;5.00;99.90;;;;;;5035554;28;20535;-70
2021/04/06 08:27:55;;;;;;;10.15;2.38;;;5.00;99.90;;;;;;5032492;28;20040;-69
2021/04/06 08:30:25;;;;;;;11.80;1.92;;;5.30;99.90;;;;;;5034763;28;20025;-70
2021/04/06 08:35:52;;;;;;;12.38;1.85;;;5.80;99.90;;;;;;5033239;28;20429;-71
2021/04/06 08:38:21;;;;;;;8.73;1.35;;;5.60;99.90;;;;;;5032489;28;20034;-70
2021/04/06 08:40:49;;;;;;;8.13;1.05;;;5.80;99.90;;;;;;5034593;28;20033;-70
2021/04/06 08:43:19;;;;;;;;;;;6.00;99.90;;;;;;5027232;28;20037;-67
2021/04/06 08:46:05;;;;;;;8.35;1.02;;;6.00;99.90;;;;;;5028342;28;19917;-69
2021/04/06 08:48:57;;;;;;;8.75;0.60;;;5.90;99.90;;;;;;5027812;28;20076;-67
2021/04/06 08:51:38;;;;;;;5.72;0.75;;;5.70;99.90;;;;;;5048613;28;20025;-68
2021/04/06 08:54:06;;;;;;;3.60;0.70;;;5.40;99.90;;;;;;5034418;28;20033;-68
2021/04/06 08:56:34;;;;;;;6.95;1.10;;;5.20;99.90;;;;;;5033808;28;20025;-69
2021/04/06 08:59:35;;;;;;;5.53;0.82;;;5.20;99.90;;;;;;5034998;28;20104;-70
2021/04/06 09:02:05;;;;;;;5.78;0.98;;;5.60;99.90;;;;;;5033958;28;20013;-69
2021/04/06 09:04:45;;;;;;;6.53;1.95;;;5.80;99.90;;;;;;5036294;28;20017;-69
2021/04/06 09:07:25;;;;;;;3.03;1.10;;;5.80;99.90;;;;;;5037794;28;20026;-69
2021/04/06 09:09:58;;;;;;;5.10;0.73;;;5.80;99.90;;;;;;5031068;28;20416;-69
2021/04/06 09:12:27;;;;;;;7.35;1.52;;;5.60;99.90;;;;;;5032536;28;20040;-68
2021/04/06 09:14:54;;;;;;;5.68;0.90;;;5.30;99.90;;;;;;5048122;28;20057;-69
2021/04/06 09:17:25;;;;;;;2.85;1.60;;;5.30;99.90;;;;;;5042140;28;20470;-69
2021/04/06 09:19:51;;;;;;;2.70;0.60;;;5.30;99.90;;;;;;5045173;28;20025;-71
2021/04/06 09:22:17;;;;;;;2.53;0.98;;;5.50;99.90;;;;;;5029573;28;20037;-69
2021/04/06 09:24:44;;;;;;;3.85;0.90;;;5.60;99.90;;;;;;5031678;28;20107;-69
2021/04/06 09:27:10;;;;;;;6.03;1.03;;;5.80;99.90;;;;;;5031561;28;20053;-70
2021/04/06 09:29:38;;;;;;;6.43;1.13;;;6.10;99.90;;;;;;5031304;28;20061;-69
2021/04/06 09:32:09;;;;;;;1.95;0.73;;;6.60;99.90;;;;;;5031693;28;20359;-69
2021/04/06 09:34:38;;;;;;;4.60;1.75;;;6.90;99.90;;;;;;5020174;28;20022;-70
2021/04/06 09:37:10;;;;;;;5.10;1.17;;;6.90;99.90;;;;;;5014442;28;20490;-69
2021/04/06 09:39:37;;;;;;;9.98;1.13;;;6.40;99.90;;;;;;5028122;28;20026;-69
2021/04/06 09:42:05;;;;;;;6.50;0.80;;;5.90;99.90;;;;;;5033254;28;20038;-70
2021/04/06 09:44:36;;;;;;;8.88;1.23;;;5.60;99.90;;;;;;5049270;28;20033;-69
2021/04/06 09:47:05;;;;;;;3.17;0.55;;;5.60;99.90;;;;;;5028867;28;20032;-69
2021/04/06 09:49:34;;;;;;;2.25;0.45;;;5.10;99.90;;;;;;5031171;28;20034;-69
2021/04/06 09:52:04;;;;;;;1.15;0.38;;;4.30;99.90;;;;;;5031608;28;20026;-69
2021/04/06 09:54:32;;;;;;;3.17;0.93;;;4.10;99.90;;;;;;5032722;28;20028;-69
2021/04/06 09:57:00;;;;;;;3.83;0.50;;;3.90;99.90;;;;;;5031460;28;20029;-70
2021/04/06 09:59:28;;;;;;;8.63;1.08;;;4.00;99.90;;;;;;5032551;28;20501;-70
2021/04/06 10:01:56;;;;;;;6.07;0.57;;;4.20;99.90;;;;;;5038865;28;20421;-69
2021/04/06 10:04:35;;;;;;;1.75;0.43;;;4.50;99.90;;;;;;5023815;28;20063;-69
2021/04/06 10:07:17;;;;;;;2.63;0.88;;;4.70;99.90;;;;;;5045517;28;20056;-70
2021/04/06 10:09:47;;;;;;;2.85;0.50;;;5.00;99.90;;;;;;5032661;28;20038;-69
2021/04/06 10:12:15;;;;;;;4.97;0.98;;;5.00;99.90;;;;;;5032806;28;20437;-69
2021/04/06 10:14:42;;;;;;;3.28;0.88;;;5.30;99.90;;;;;;5033393;28;20021;-72
2021/04/06 10:17:19;;;;;;;9.20;0.93;;;5.70;99.90;;;;;;5023862;28;20017;-69
2021/04/06 10:19:56;;;;;;;2.47;0.77;;;6.00;99.90;;;;;;5049446;28;20029;-71
2021/04/06 10:22:25;;;;;;;2.35;0.90;;;6.40;99.90;;;;;;5032016;28;20033;-71
2021/04/06 10:24:59;;;;;;;10.73;0.90;;;6.10;99.90;;;;;;5032417;28;20036;-69
2021/04/06 10:27:36;;;;;;;11.88;1.52;;;5.20;99.90;;;;;;5032236;28;20041;-71
2021/04/06 10:30:08;;;;;;;6.22;1.15;;;4.90;99.90;;;;;;5053085;28;20037;-69
2021/04/06 10:32:45;;;;;;;5.10;0.77;;;5.00;99.90;;;;;;5062231;28;20025;-69
2021/04/06 10:35:31;;;;;;;6.47;0.85;;;4.80;99.90;;;;;;5034147;28;20025;-68
2021/04/06 10:38:03;;;;;;;4.93;0.88;;;4.70;99.90;;;;;;5029652;28;20033;-68
2021/04/06 10:40:39;;;;;;;3.30;0.60;;;4.70;99.90;;;;;;5031878;28;20033;-68
2021/04/06 10:43:08;;;;;;;0.80;0.40;;;4.80;99.90;;;;;;5030096;28;20029;-68
2021/04/06 10:45:38;;;;;;;1.20;0.30;;;5.10;99.90;;;;;;5032451;28;20025;-68
2021/04/06 10:48:08;;;;;;;1.98;0.45;;;5.50;99.90;;;;;;5031246;28;20030;-69
2021/04/06 10:50:36;;;;;;;6.88;0.45;;;5.60;99.90;;;;;;5031581;28;20378;-68
2021/04/06 10:53:33;;;;;;;5.72;0.55;;;5.60;99.90;;;;;;5033120;28;20075;-67
2021/04/06 10:56:02;;;;;;;3.92;0.40;;;5.80;99.90;;;;;;5035404;28;20037;-67
2021/04/06 10:58:37;;;;;;;2.88;0.65;;;6.00;99.90;;;;;;5037083;28;20022;-67
2021/04/06 11:01:11;;;;;;;3.83;1.05;;;6.00;99.90;;;;;;5037328;28;20029;-69
2021/04/06 11:03:44;;;;;;;3.25;0.95;;;6.10;99.90;;;;;;5033241;28;20430;-68
2021/04/06 11:06:34;;;;;;;4.50;0.60;;;6.50;99.90;;;;;;5036065;28;20049;-67
2021/04/06 11:09:12;;;;;;;4.10;0.80;;;6.50;99.90;;;;;;5038201;28;20069;-68
2021/04/06 11:11:37;;;;;;;4.97;1.00;;;6.80;99.90;;;;;;5021754;28;20037;-69
2021/04/06 11:14:06;;;;;;;4.05;1.10;;;6.70;99.90;;;;;;5033782;28;20021;-68
2021/04/06 11:16:33;;;;;;;7.93;1.05;;;5.90;99.90;;;;;;5034918;28;20120;-68
2021/04/06 11:19:10;;;;;;;5.60;0.95;;;5.20;99.90;;;;;;5034940;28;20034;-68
2021/04/06 11:21:48;;;;;;;8.90;0.90;;;4.70;99.90;;;;;;5050839;28;20025;-69
2021/04/06 11:24:15;;;;;;;12.90;1.67;;;4.10;99.90;;;;;;5036267;28;20025;-69
2021/04/06 11:26:41;;;;;;;6.35;2.03;;;3.80;99.90;;;;;;5035707;28;20069;-68
2021/04/06 11:29:09;;;;;;;4.88;1.17;;;3.70;99.90;;;;;;5038659;28;20041;-69
2021/04/06 11:31:36;;;;;;;4.18;0.55;;;3.60;99.90;;;;;;5036806;28;20029;-71
2021/04/06 11:34:04;;;;;;;2.55;0.40;;;3.50;99.90;;;;;;5035511;28;20504;-68
2021/04/06 11:36:30;;;;;;;5.95;0.98;;;3.50;99.90;;;;;;5036364;28;20041;-68
2021/04/06 11:38:56;;;;;;;0.70;0.40;;;3.60;99.90;;;;;;5036036;28;20025;-70
2021/04/06 11:41:21;;;;;;;1.17;0.57;;;3.70;99.90;;;;;;5036425;28;20026;-68
2021/04/06 11:43:49;;;;;;;1.08;0.50;;;4.10;99.90;;;;;;5045296;28;20037;-68
2021/04/06 11:46:15;;;;;;;8.60;0.43;;;4.30;99.90;;;;;;5036154;28;20120;-68
2021/04/06 11:48:41;;;;;;;8.18;0.30;;;4.60;99.90;;;;;;5034035;28;20571;-67
2021/04/06 11:51:07;;;;;;;0.95;0.70;;;4.80;99.90;;;;;;5029785;28;20026;-67
2021/04/06 11:53:33;;;;;;;7.63;0.80;;;5.10;99.90;;;;;;5031679;28;20017;-68
2021/04/06 11:55:59;;;;;;;3.80;0.80;;;5.30;99.90;;;;;;5034263;28;20030;-67
2021/04/06 11:58:25;;;;;;;4.20;0.80;;;5.70;99.90;;;;;;5032857;28;20031;-69
2021/04/06 12:00:51;;;;;;;3.28;0.75;;;6.10;99.90;;;;;;5017758;28;20037;-68
2021/04/06 12:03:17;;;;;;;11.38;0.80;;;6.40;99.90;;;;;;5032028;28;20033;-68
2021/04/06 12:05:43;;;;;;;4.82;0.85;;;6.50;99.90;;;;;;5035680;28;20064;-68
2021/04/06 12:08:09;;;;;;;6.25;0.93;;;6.40;99.90;;;;;;5034625;28;20044;-68
2021/04/06 12:10:36;;;;;;;8.07;1.10;;;6.50;99.90;;;;;;5034559;28;20037;-68
2021/04/06 12:13:02;;;;;;;2.22;0.75;;;6.50;99.90;;;;;;5034156;28;20022;-68
2021/04/06 12:15:27;;;;;;;10.65;1.17;;;6.50;99.90;;;;;;5034443;28;20017;-68
2021/04/06 12:17:53;;;;;;;6.45;1.17;;;6.10;99.90;;;;;;5035805;28;20041;-69
2021/04/06 12:20:19;;;;;;;10.32;1.17;;;5.80;99.90;;;;;;5035115;28;20026;-68
2021/04/06 12:22:45;;;;;;;5.30;0.93;;;5.40;99.90;;;;;;5050794;28;20031;-68
2021/04/06 12:25:11;;;;;;;7.75;1.60;;;5.20;99.90;;;;;;5050296;28;20397;-68
2021/04/06 12:27:37;;;;;;;10.07;1.70;;;5.20;99.90;;;;;;5050650;28;20556;-68
2021/04/06 12:30:04;;;;;;;7.10;1.20;;;5.50;99.90;;;;;;5038950;28;20025;-68
2021/04/06 12:32:30;;;;;;;7.65;1.08;;;5.70;99.90;;;;;;5051890;28;20025;-69
2021/04/06 12:34:55;;;;;;;4.80;1.75;;;5.80;99.90;;;;;;5046486;28;20025;-68
2021/04/06 12:37:21;;;;;;;4.72;0.70;;;5.60;99.90;;;;;;5035209;28;20427;-68
2021/04/06 12:39:47;;;;;;;7.28;1.00;;;5.20;99.90;;;;;;5034002;28;20021;-67
2021/04/06 12:42:13;;;;;;;11.35;2.03;;;5.00;99.90;;;;;;5033893;28;20030;-70
2021/04/06 12:44:39;;;;;;;6.07;0.60;;;5.00;99.90;;;;;;5033889;28;20060;-69
2021/04/06 12:47:05;;;;;;;7.07;0.82;;;5.30;99.90;;;;;;5035226;28;20094;-69
2021/04/06 12:49:30;;;;;;;7.72;1.55;;;5.80;99.90;;;;;;5033606;28;20408;-68
2021/04/06 12:51:56;;;;;;;2.88;0.47;;;6.10;99.90;;;;;;5033805;28;20041;-69
2021/04/06 12:54:21;;;;;;;2.35;0.40;;;5.90;99.90;;;;;;5033359;28;20072;-70
2021/04/06 12:56:47;;;;;;;4.72;0.70;;;5.80;99.90;;;;;;5033163;28;20048;-68
2021/04/06 12:59:13;;;;;;;3.20;0.55;;;5.60;99.90;;;;;;5029398;28;20017;-68
2021/04/06 13:01:38;;;;;;;4.28;1.00;;;5.40;99.90;;;;;;5033210;28;20107;-69
2021/04/06 13:04:04;;;;;;;5.68;0.90;;;5.20;99.90;;;;;;5032836;28;20026;-68
2021/04/06 13:06:30;;;;;;;4.72;0.73;;;5.10;99.90;;;;;;5033438;28;20071;-67
2021/04/06 13:08:55;;;;;;;1.63;0.50;;;5.10;99.90;;;;;;5032909;28;20393;-67
2021/04/06 13:11:21;;;;;;;11.18;1.00;;;5.10;99.90;;;;;;5031993;28;20045;-68
2021/04/06 13:13:47;;;;;;;21.80;0.95;;;5.20;99.90;;;;;;5033715;28;20014;-67